createdAt,value
2018-04-08T00:00:24.810Z,10.30
2018-04-08T00:02:52.582Z,10.30
2018-04-08T00:05:20.375Z,10.30
2018-04-08T00:07:48.210Z,10.30
2018-04-08T00:10:16.009Z,10.30
2018-04-08T00:12:43.810Z,10.30
2018-04-08T00:15:11.643Z,10.20
2018-04-08T00:17:40.188Z,10.10
2018-04-08T00:20:08.028Z,10.10
2018-04-08T00:22:35.863Z,10.00
2018-04-08T00:25:05.196Z,9.90
2018-04-08T00:27:32.963Z,10.00
2018-04-08T00:30:00.788Z,9.80
2018-04-08T00:32:29.323Z,9.80
2018-04-08T00:34:57.211Z,9.80
2018-04-08T00:37:25.036Z,9.80
2018-04-08T00:39:52.822Z,9.80
2018-04-08T00:42:20.655Z,9.70
2018-04-08T00:44:48.809Z,9.70
2018-04-08T00:47:16.587Z,9.80
2018-04-08T00:49:44.441Z,9.80
2018-04-08T00:52:12.325Z,9.80
2018-04-08T00:54:40.118Z,9.70
2018-04-08T00:57:08.659Z,9.60
2018-04-08T00:59:36.490Z,9.60
2018-04-08T01:02:05.042Z,9.60
2018-04-08T01:04:32.820Z,9.50
2018-04-08T01:07:01.677Z,9.50
2018-04-08T01:09:30.344Z,9.50
2018-04-08T01:11:58.114Z,9.40
2018-04-08T01:14:25.977Z,9.30
2018-04-08T01:16:54.578Z,9.20
2018-04-08T01:19:22.386Z,9.20
2018-04-08T01:21:50.849Z,9.20
2018-04-08T01:24:19.387Z,9.30
2018-04-08T01:26:47.154Z,9.30
2018-04-08T01:29:14.988Z,9.20
2018-04-08T01:31:42.781Z,9.20
2018-04-08T01:34:10.569Z,9.20
2018-04-08T01:36:38.478Z,9.20
2018-04-08T01:39:07.226Z,9.10
2018-04-08T01:41:35.807Z,8.90
2018-04-08T01:44:04.859Z,8.70
2018-04-08T01:46:32.645Z,8.70
2018-04-08T01:49:01.209Z,8.70
2018-04-08T01:51:29.024Z,8.60
2018-04-08T01:53:56.791Z,8.60
2018-04-08T01:56:24.567Z,8.50
2018-04-08T01:58:52.396Z,8.40
2018-04-08T02:01:20.982Z,8.10
2018-04-08T02:03:48.860Z,8.10
2018-04-08T02:06:16.717Z,8.00
2018-04-08T02:08:44.502Z,8.00
2018-04-08T02:11:12.266Z,7.90
2018-04-08T02:13:40.108Z,7.90
2018-04-08T02:16:07.886Z,7.80
2018-04-08T02:18:35.698Z,7.80
2018-04-08T02:21:04.315Z,7.70
2018-04-08T02:23:32.080Z,7.60
2018-04-08T02:25:59.991Z,7.60
2018-04-08T02:28:27.839Z,7.50
2018-04-08T02:30:55.637Z,7.50
2018-04-08T02:33:24.171Z,7.40
2018-04-08T02:35:52.119Z,7.40
2018-04-08T02:38:19.913Z,7.40
2018-04-08T02:40:47.683Z,7.50
2018-04-08T02:43:15.504Z,7.50
2018-04-08T02:45:43.271Z,7.50
2018-04-08T02:48:11.064Z,7.40
2018-04-08T02:50:38.919Z,7.40
2018-04-08T02:53:06.702Z,7.40
2018-04-08T02:55:34.467Z,7.50
2018-04-08T02:58:02.291Z,7.50
2018-04-08T03:00:30.057Z,7.60
2018-04-08T03:02:57.848Z,7.60
2018-04-08T03:05:25.698Z,7.60
2018-04-08T03:07:53.480Z,7.60
2018-04-08T03:10:21.271Z,7.60
2018-04-08T03:12:49.868Z,7.60
2018-04-08T03:15:17.688Z,7.60
2018-04-08T03:17:45.449Z,7.70
2018-04-08T03:20:13.304Z,7.70
2018-04-08T03:22:41.075Z,7.70
2018-04-08T03:25:08.872Z,7.70
2018-04-08T03:27:36.724Z,7.70
2018-04-08T03:30:05.264Z,7.80
2018-04-08T03:32:33.060Z,7.70
2018-04-08T03:35:01.677Z,7.70
2018-04-08T03:37:29.455Z,7.70
2018-04-08T03:39:57.237Z,7.70
2018-04-08T03:42:25.279Z,7.60
2018-04-08T03:44:53.051Z,7.60
2018-04-08T03:47:20.825Z,7.60
2018-04-08T03:49:48.634Z,7.60
2018-04-08T03:52:16.433Z,7.60
2018-04-08T03:54:44.218Z,7.60
2018-04-08T03:57:12.067Z,7.60
2018-04-08T03:59:39.879Z,7.60
2018-04-08T04:02:08.419Z,7.50
2018-04-08T04:04:36.263Z,7.50
2018-04-08T04:07:04.069Z,7.40
2018-04-08T04:09:31.950Z,7.40
2018-04-08T04:12:00.568Z,7.40
2018-04-08T04:14:28.386Z,7.40
2018-04-08T04:16:56.939Z,7.50
2018-04-08T04:19:36.543Z,7.50
2018-04-08T04:22:16.107Z,7.60
2018-04-08T04:25:02.635Z,7.70
2018-04-08T04:27:30.423Z,7.70
2018-04-08T04:29:58.192Z,7.90
2018-04-08T04:32:26.036Z,7.90
2018-04-08T04:34:53.833Z,8.00
2018-04-08T04:37:21.625Z,8.00
2018-04-08T04:39:49.452Z,8.10
2018-04-08T04:42:17.213Z,8.20
2018-04-08T04:44:44.988Z,8.30
2018-04-08T04:47:12.807Z,8.40
2018-04-08T04:49:40.636Z,8.50
2018-04-08T04:52:08.400Z,8.70
2018-04-08T04:54:36.236Z,9.20
2018-04-08T04:57:04.023Z,9.90
2018-04-08T04:59:31.802Z,10.70
2018-04-08T05:01:59.648Z,11.40
2018-04-08T05:04:27.439Z,12.20
2018-04-08T05:06:55.218Z,13.00
2018-04-08T05:09:23.540Z,13.60
2018-04-08T05:11:51.311Z,14.10
2018-04-08T05:14:19.874Z,14.90
2018-04-08T05:16:47.728Z,14.80
2018-04-08T05:19:15.524Z,15.10
2018-04-08T05:21:43.311Z,15.20
2018-04-08T05:24:11.172Z,15.60
2018-04-08T05:26:38.955Z,15.90
2018-04-08T05:29:07.507Z,17.20
2018-04-08T05:31:35.376Z,17.10
2018-04-08T05:34:03.168Z,17.60
2018-04-08T05:36:30.953Z,18.40
2018-04-08T05:38:58.810Z,19.20
2018-04-08T05:41:26.593Z,20.20
2018-04-08T05:43:55.132Z,21.70
2018-04-08T05:46:23.737Z,22.40
2018-04-08T05:48:51.547Z,22.30
2018-04-08T05:51:19.320Z,22.90
2018-04-08T05:53:47.922Z,22.40
2018-04-08T05:56:15.712Z,22.40
2018-04-08T05:58:43.495Z,23.10
2018-04-08T06:01:11.324Z,23.60
2018-04-08T06:03:39.109Z,24.00
2018-04-08T06:06:06.916Z,25.00
2018-04-08T06:08:35.555Z,25.90
2018-04-08T06:11:03.329Z,25.90
2018-04-08T06:13:31.875Z,26.30
2018-04-08T06:15:59.768Z,26.30
2018-04-08T06:18:27.573Z,26.40
2018-04-08T06:20:56.131Z,27.00
2018-04-08T06:23:23.959Z,27.00
2018-04-08T06:25:51.768Z,27.40
2018-04-08T06:28:19.555Z,27.30
2018-04-08T06:30:48.163Z,28.70
2018-04-08T06:33:16.011Z,28.70
2018-04-08T06:35:43.889Z,29.10
2018-04-08T06:38:11.781Z,29.90
2018-04-08T06:40:39.591Z,30.30
2018-04-08T06:43:08.222Z,29.70
2018-04-08T06:45:36.075Z,29.70
2018-04-08T06:48:03.943Z,30.20
2018-04-08T06:50:31.807Z,30.80
2018-04-08T06:52:59.653Z,31.00
2018-04-08T06:55:27.441Z,30.50
2018-04-08T06:57:55.256Z,30.50
2018-04-08T07:00:23.092Z,30.80
2018-04-08T07:02:50.939Z,32.10
2018-04-08T07:05:18.750Z,32.30
2018-04-08T07:07:46.593Z,31.60
2018-04-08T07:10:15.193Z,28.80
2018-04-08T07:12:42.969Z,28.70
2018-04-08T07:15:10.815Z,27.80
2018-04-08T07:17:39.356Z,27.70
2018-04-08T07:20:07.167Z,27.60
2018-04-08T07:22:35.166Z,28.30
2018-04-08T07:25:02.948Z,29.70
2018-04-08T07:27:30.726Z,30.80
2018-04-08T07:29:58.575Z,30.90
2018-04-08T07:32:26.371Z,30.80
2018-04-08T07:34:54.936Z,31.50
2018-04-08T07:37:23.535Z,31.20
2018-04-08T07:39:52.116Z,31.90
2018-04-08T07:42:20.696Z,32.70
2018-04-08T07:44:48.585Z,32.60
2018-04-08T07:47:16.395Z,32.80
2018-04-08T07:49:44.206Z,33.30
2018-04-08T07:52:12.093Z,33.90
2018-04-08T07:54:39.936Z,33.10
2018-04-08T07:57:07.758Z,32.80
2018-04-08T07:59:36.411Z,33.90
2018-04-08T08:02:04.696Z,33.80
2018-04-08T08:04:33.280Z,31.30
2018-04-08T08:07:01.130Z,31.30
2018-04-08T08:09:28.958Z,30.50
2018-04-08T08:11:56.751Z,30.30
2018-04-08T08:14:24.584Z,30.00
2018-04-08T08:16:52.389Z,29.30
2018-04-08T08:19:20.194Z,28.90
2018-04-08T08:21:48.037Z,29.60
2018-04-08T08:24:16.599Z,28.10
2018-04-08T08:26:44.379Z,28.10
2018-04-08T08:29:12.979Z,27.40
2018-04-08T08:31:41.550Z,28.20
2018-04-08T08:34:10.152Z,28.60
2018-04-08T08:36:38.054Z,28.60
2018-04-08T08:39:05.859Z,29.60
2018-04-08T08:41:34.400Z,27.80
2018-04-08T08:44:02.301Z,27.80
2018-04-08T08:46:30.845Z,27.40
2018-04-08T08:48:58.745Z,27.30
2018-04-08T08:51:27.349Z,29.00
2018-04-08T08:53:55.134Z,29.00
2018-04-08T08:56:22.938Z,30.00
2018-04-08T08:58:50.777Z,30.20
2018-04-08T09:01:18.615Z,29.80
2018-04-08T09:03:46.408Z,30.00
2018-04-08T09:06:14.260Z,29.90
2018-04-08T09:08:42.099Z,30.50
2018-04-08T09:11:09.877Z,29.30
2018-04-08T09:13:44.736Z,27.30
2018-04-08T09:16:13.201Z,26.20
2018-04-08T09:18:42.589Z,26.10
2018-04-08T09:21:16.040Z,26.90
2018-04-08T09:23:44.710Z,24.50
2018-04-08T09:26:13.292Z,23.50
2018-04-08T09:28:41.932Z,22.90
2018-04-08T09:31:10.631Z,22.60
2018-04-08T09:33:38.530Z,22.50
2018-04-08T09:36:06.362Z,22.60
2018-04-08T09:38:34.235Z,22.80
2018-04-08T09:41:02.044Z,22.50
2018-04-08T09:43:30.705Z,22.20
2018-04-08T09:46:00.030Z,22.50
2018-04-08T09:48:28.025Z,22.50
2018-04-08T09:50:56.719Z,22.30
2018-04-08T09:53:24.576Z,22.20
2018-04-08T09:55:52.441Z,22.30
2018-04-08T09:58:20.291Z,22.60
2018-04-08T10:14:14.311Z,21.90
2018-04-08T10:16:42.222Z,21.60
2018-04-08T10:19:10.293Z,21.70
2018-04-08T10:21:38.848Z,22.10
2018-04-08T10:24:06.919Z,22.10
2018-04-08T10:26:35.754Z,21.90
2018-04-08T10:29:04.928Z,21.30
2018-04-08T10:31:32.842Z,21.30
2018-04-08T10:34:00.992Z,21.30
2018-04-08T10:36:29.295Z,21.10
2018-04-08T10:38:57.183Z,20.80
2018-04-08T10:41:25.086Z,20.80
2018-04-08T10:43:54.477Z,20.70
2018-04-08T10:46:23.123Z,21.10
2018-04-08T10:48:52.128Z,21.10
2018-04-08T10:51:25.338Z,21.40
2018-04-08T10:53:53.409Z,21.40
2018-04-08T10:56:22.079Z,21.60
2018-04-08T10:58:50.911Z,21.60
2018-04-08T11:01:18.951Z,21.50
2018-04-08T11:03:48.141Z,21.40
2018-04-08T11:06:16.460Z,21.40
2018-04-08T11:08:44.334Z,21.00
2018-04-08T11:11:12.292Z,21.10
2018-04-08T11:13:40.368Z,21.10
2018-04-08T11:16:08.524Z,21.20
2018-04-08T11:18:38.368Z,21.30
2018-04-08T11:21:06.223Z,21.30
2018-04-08T11:23:34.098Z,21.20
2018-04-08T11:26:02.050Z,21.40
2018-04-08T11:28:30.885Z,21.30
2018-04-08T11:31:00.267Z,21.50
2018-04-08T11:33:28.923Z,21.40
2018-04-08T11:35:56.762Z,21.40
2018-04-08T11:38:24.621Z,21.70
2018-04-08T11:40:52.512Z,21.70
2018-04-08T11:43:20.328Z,21.70
2018-04-08T11:45:51.730Z,22.00
2018-04-08T11:48:21.354Z,21.90
2018-04-08T11:50:49.236Z,21.60
2018-04-08T11:53:17.023Z,21.70
2018-04-08T11:55:45.671Z,22.40
2018-04-08T11:58:13.551Z,22.30
2018-04-08T12:00:43.356Z,22.30
2018-04-08T12:03:11.267Z,22.20
2018-04-08T12:05:39.175Z,22.10
2018-04-08T12:08:07.047Z,22.20
2018-04-08T12:10:36.141Z,22.10
2018-04-08T12:13:04.067Z,22.10
2018-04-08T12:15:31.856Z,22.20
2018-04-08T12:18:00.563Z,22.00
2018-04-08T12:20:28.903Z,22.00
2018-04-08T12:22:56.751Z,22.00
2018-04-08T12:25:24.677Z,22.20
2018-04-08T12:27:54.207Z,22.20
2018-04-08T12:30:22.074Z,22.20
2018-04-08T12:32:49.966Z,22.40
2018-04-08T12:35:17.755Z,22.30
2018-04-08T12:37:45.541Z,22.10
2018-04-08T12:40:14.167Z,22.00
2018-04-08T12:42:43.511Z,22.10
2018-04-08T12:45:12.080Z,22.20
2018-04-08T12:47:39.942Z,22.20
2018-04-08T12:50:07.748Z,22.20
2018-04-08T12:52:35.596Z,22.10
2018-04-08T12:55:05.501Z,21.60
2018-04-08T12:57:33.508Z,21.60
2018-04-08T13:00:01.982Z,21.50
2018-04-08T13:02:30.834Z,21.70
2018-04-08T13:05:00.596Z,21.80
2018-04-08T13:07:28.431Z,21.80
2018-04-08T13:09:56.313Z,21.90
2018-04-08T13:12:24.122Z,21.70
2018-04-08T13:14:53.926Z,21.70
2018-04-08T13:17:23.652Z,21.70
2018-04-08T13:19:51.898Z,21.70
2018-04-08T13:22:19.685Z,21.50
2018-04-08T13:24:48.752Z,21.40
2018-04-08T13:27:16.529Z,21.30
2018-04-08T13:29:45.118Z,21.40
2018-04-08T13:32:13.712Z,21.50
2018-04-08T13:34:42.386Z,21.60
2018-04-08T13:37:10.205Z,21.60
2018-04-08T13:39:38.118Z,21.70
2018-04-08T13:42:06.467Z,21.60
2018-04-08T13:44:34.536Z,21.50
2018-04-08T13:47:02.486Z,21.50
2018-04-08T13:49:30.343Z,21.50
2018-04-08T13:51:58.138Z,21.50
2018-04-08T13:54:26.180Z,21.40
2018-04-08T13:56:53.989Z,20.90
2018-04-08T13:59:22.605Z,20.70
2018-04-08T14:01:50.489Z,20.70
2018-04-08T14:04:18.305Z,20.70
2018-04-08T14:06:46.938Z,20.90
2018-04-08T14:09:14.886Z,20.80
2018-04-08T14:11:42.750Z,21.00
2018-04-08T14:14:10.588Z,21.00
2018-04-08T14:16:38.455Z,21.00
2018-04-08T14:19:06.287Z,20.90
2018-04-08T14:21:34.857Z,21.00
2018-04-08T14:24:03.517Z,21.10
2018-04-08T14:26:31.364Z,21.10
2018-04-08T14:28:59.197Z,21.20
2018-04-08T14:31:27.735Z,21.30
2018-04-08T14:33:55.525Z,21.30
2018-04-08T14:36:24.074Z,21.40
2018-04-08T14:38:52.668Z,21.40
2018-04-08T14:41:21.114Z,21.40
2018-04-08T14:43:49.641Z,21.10
2018-04-08T14:46:18.259Z,21.10
2018-04-08T14:48:46.039Z,21.10
2018-04-08T14:51:13.840Z,21.10
2018-04-08T14:53:41.707Z,21.20
2018-04-08T14:56:09.485Z,21.30
2018-04-08T14:58:38.022Z,21.40
2018-04-08T15:01:05.874Z,21.40
2018-04-08T15:03:33.631Z,21.40
2018-04-08T15:06:01.469Z,21.30
2018-04-08T15:08:29.320Z,21.30
2018-04-08T15:10:57.865Z,21.40
2018-04-08T15:13:25.703Z,21.40
2018-04-08T15:15:53.577Z,21.50
2018-04-08T15:18:21.363Z,21.70
2018-04-08T15:20:49.140Z,21.70
2018-04-08T15:23:17.763Z,21.50
2018-04-08T15:25:45.550Z,21.50
2018-04-08T15:28:13.312Z,21.40
2018-04-08T15:30:41.145Z,21.30
2018-04-08T15:33:08.946Z,21.20
2018-04-08T15:35:36.719Z,21.20
2018-04-08T15:38:04.544Z,21.10
2018-04-08T15:40:32.988Z,21.10
2018-04-08T15:43:01.581Z,21.00
2018-04-08T15:45:29.416Z,21.00
2018-04-08T15:47:57.198Z,20.90
2018-04-08T15:50:25.747Z,21.00
2018-04-08T15:52:53.581Z,21.00
2018-04-08T15:55:21.354Z,20.90
2018-04-08T15:57:49.144Z,20.90
2018-04-08T16:00:16.982Z,20.90
2018-04-08T16:02:44.774Z,21.00
2018-04-08T16:05:13.333Z,21.20
2018-04-08T16:07:41.179Z,21.10
2018-04-08T16:10:08.945Z,21.20
2018-04-08T16:12:36.740Z,21.30
2018-04-08T16:15:04.571Z,21.40
2018-04-08T16:17:32.349Z,21.40
2018-04-08T16:20:00.167Z,21.30
2018-04-08T16:22:28.080Z,21.20
2018-04-08T16:24:55.854Z,21.10
2018-04-08T16:27:24.406Z,20.70
2018-04-08T16:29:52.235Z,20.70
2018-04-08T16:32:20.014Z,20.60
2018-04-08T16:34:47.822Z,20.50
2018-04-08T16:37:15.872Z,20.40
2018-04-08T16:39:43.667Z,20.20
2018-04-08T16:42:12.212Z,20.00
2018-04-08T16:44:40.046Z,20.00
2018-04-08T16:47:07.838Z,20.00
2018-04-08T16:49:35.610Z,19.80
2018-04-08T16:52:03.445Z,19.80
2018-04-08T16:54:31.222Z,19.80
2018-04-08T16:56:59.050Z,19.80
2018-04-08T16:59:26.941Z,19.80
2018-04-08T17:01:54.769Z,19.80
2018-04-08T17:04:23.655Z,19.70
2018-04-08T17:06:51.486Z,19.60
2018-04-08T17:09:19.263Z,19.50
2018-04-08T17:11:47.920Z,19.20
2018-04-08T17:14:16.181Z,19.20
2018-04-08T17:16:43.966Z,19.00
2018-04-08T17:19:11.774Z,18.90
2018-04-08T17:21:39.615Z,18.70
2018-04-08T17:24:08.229Z,18.60
2018-04-08T17:26:36.054Z,18.50
2018-04-08T17:29:04.739Z,18.30
2018-04-08T17:31:33.474Z,18.20
2018-04-08T17:34:01.291Z,18.10
2018-04-08T17:36:30.849Z,17.90
2018-04-08T17:38:58.677Z,17.90
2018-04-08T17:41:26.479Z,17.80
2018-04-08T17:43:55.992Z,17.80
2018-04-08T17:46:24.571Z,17.70
2018-04-08T17:48:52.384Z,17.70
2018-04-08T17:51:20.588Z,17.70
2018-04-08T17:53:48.382Z,17.60
2018-04-08T17:56:16.207Z,17.50
2018-04-08T17:58:44.104Z,17.40
2018-04-08T18:01:11.942Z,17.30
2018-04-08T18:03:39.808Z,17.30
2018-04-08T18:06:08.435Z,17.20
2018-04-08T18:08:36.975Z,17.20
2018-04-08T18:11:04.779Z,17.10
2018-04-08T18:13:33.533Z,17.10
2018-04-08T18:16:02.526Z,17.00
2018-04-08T18:18:30.295Z,17.00
2018-04-08T18:20:58.118Z,17.00
2018-04-08T18:23:25.892Z,17.00
2018-04-08T18:25:53.660Z,16.90
2018-04-08T18:28:21.495Z,16.90
2018-04-08T18:30:49.267Z,16.80
2018-04-08T18:33:17.115Z,16.70
2018-04-08T18:35:44.946Z,16.60
2018-04-08T18:38:12.725Z,16.60
2018-04-08T18:40:41.270Z,16.50
2018-04-08T18:43:09.115Z,16.50
2018-04-08T18:45:36.893Z,16.50
2018-04-08T18:48:04.699Z,16.50
2018-04-08T18:50:34.060Z,16.50
2018-04-08T18:53:01.840Z,16.50
2018-04-08T18:55:30.393Z,16.40
2018-04-08T18:57:58.221Z,16.40
2018-04-08T19:00:26.050Z,16.60
2018-04-08T19:02:54.611Z,16.50
2018-04-08T19:05:22.470Z,16.50
2018-04-08T19:07:50.257Z,16.50
2018-04-08T19:10:18.832Z,16.50
2018-04-08T19:12:47.462Z,16.40
2018-04-08T19:15:20.830Z,16.40
2018-04-08T19:17:55.017Z,16.20
2018-04-08T19:20:22.797Z,16.20
2018-04-08T19:22:51.351Z,16.10
2018-04-08T19:25:19.190Z,16.10
2018-04-08T19:27:46.966Z,16.10
2018-04-08T19:30:21.079Z,16.00
2018-04-08T19:32:48.880Z,16.00
2018-04-08T19:35:16.698Z,16.00
2018-04-08T19:37:45.340Z,15.90
2018-04-08T19:40:13.218Z,15.90
2018-04-08T19:42:40.997Z,15.90
2018-04-08T19:45:08.927Z,16.00
2018-04-08T19:47:36.710Z,16.00
2018-04-08T19:50:04.549Z,16.00
2018-04-08T19:52:32.951Z,16.00
2018-04-08T19:55:00.732Z,15.90
2018-04-08T19:57:28.529Z,15.80
2018-04-08T19:59:57.143Z,15.70
2018-04-08T20:02:24.931Z,15.70
2018-04-08T20:04:52.710Z,15.70
2018-04-08T20:07:20.556Z,15.70
2018-04-08T20:09:48.333Z,15.50
2018-04-08T20:12:16.111Z,15.40
2018-04-08T20:14:43.959Z,15.30
2018-04-08T20:17:11.756Z,15.20
2018-04-08T20:19:40.338Z,15.10
2018-04-08T20:22:08.955Z,15.00
2018-04-08T20:24:36.737Z,14.90
2018-04-08T20:27:04.523Z,14.90
2018-04-08T20:29:32.351Z,14.80
2018-04-08T20:32:00.136Z,14.70
2018-04-08T20:34:28.019Z,14.60
2018-04-08T20:36:55.846Z,14.50
2018-04-08T20:39:23.672Z,14.40
2018-04-08T20:41:51.440Z,14.30
2018-04-08T20:44:19.281Z,14.20
2018-04-08T20:46:47.839Z,14.10
2018-04-08T20:49:15.722Z,14.10
2018-04-08T20:51:44.320Z,14.10
2018-04-08T20:54:12.110Z,14.00
2018-04-08T20:56:39.875Z,14.10
2018-04-08T20:59:07.755Z,14.00
2018-04-08T21:01:35.530Z,14.00
2018-04-08T21:04:03.299Z,14.00
2018-04-08T21:06:31.166Z,14.00
2018-04-08T21:08:58.956Z,13.90
2018-04-08T21:11:28.204Z,14.00
2018-04-08T21:13:56.049Z,14.00
2018-04-08T21:16:23.815Z,14.00
2018-04-08T21:18:51.587Z,14.00
2018-04-08T21:21:19.442Z,14.00
2018-04-08T21:23:47.231Z,14.10
2018-04-08T21:26:15.014Z,14.10
2018-04-08T21:28:43.620Z,14.20
2018-04-08T21:31:11.426Z,14.20
2018-04-08T21:33:39.204Z,14.20
2018-04-08T21:36:07.026Z,14.20
2018-04-08T21:38:34.806Z,14.20
2018-04-08T21:41:02.573Z,14.20
2018-04-08T21:43:30.426Z,14.20
2018-04-08T21:45:58.203Z,14.20
2018-04-08T21:48:25.991Z,14.10
2018-04-08T21:50:54.597Z,14.10
2018-04-08T21:53:22.381Z,14.10
2018-04-08T21:55:50.144Z,14.10
2018-04-08T21:58:18.009Z,14.00
2018-04-08T22:00:45.818Z,13.90
2018-04-08T22:03:13.599Z,13.80
2018-04-08T22:05:42.216Z,13.70
2018-04-08T22:08:09.999Z,13.70
2018-04-08T22:10:37.779Z,13.60
2018-04-08T22:13:05.632Z,13.60
2018-04-08T22:15:34.174Z,13.50
2018-04-08T22:18:01.958Z,13.50
2018-04-08T22:20:29.778Z,13.40
2018-04-08T22:22:58.341Z,13.30
2018-04-08T22:25:26.152Z,13.30
2018-04-08T22:27:53.982Z,13.30
2018-04-08T22:30:22.527Z,13.20
2018-04-08T22:32:50.307Z,13.10
2018-04-08T22:35:18.158Z,13.20
2018-04-08T22:37:46.707Z,13.10
2018-04-08T22:40:14.467Z,13.10
2018-04-08T22:42:42.326Z,13.00
2018-04-08T22:45:10.095Z,13.10
2018-04-08T22:47:37.887Z,13.00
2018-04-08T22:50:05.705Z,12.90
2018-04-08T22:52:33.494Z,12.90
2018-04-08T22:55:01.278Z,12.90
2018-04-08T22:57:29.103Z,12.90
2018-04-08T22:59:56.876Z,12.90
2018-04-08T23:02:24.648Z,12.80
2018-04-08T23:04:52.489Z,12.80
2018-04-08T23:07:20.263Z,12.70
2018-04-08T23:09:48.048Z,12.70
2018-04-08T23:12:15.865Z,12.70
2018-04-08T23:14:43.640Z,12.60
2018-04-08T23:17:11.441Z,12.60
2018-04-08T23:19:39.285Z,12.60
2018-04-08T23:22:07.117Z,12.60
2018-04-08T23:24:34.904Z,12.50
2018-04-08T23:27:02.761Z,12.50
2018-04-08T23:29:30.538Z,12.50
2018-04-08T23:31:58.310Z,12.50
2018-04-08T23:34:26.138Z,12.40
2018-04-08T23:36:53.906Z,12.40
2018-04-08T23:39:21.720Z,12.30
2018-04-08T23:41:49.591Z,12.30
2018-04-08T23:44:17.387Z,12.30
2018-04-08T23:46:45.145Z,12.30
2018-04-08T23:49:12.970Z,12.30
2018-04-08T23:51:40.735Z,12.20
2018-04-08T23:54:08.531Z,12.10
2018-04-08T23:56:36.364Z,12.00
2018-04-08T23:59:04.127Z,12.00
